Time;durP1;ratioP1;P1;durP2;ratioP2;P2;SDS_P1;SDS_P2;PMS_P1;PMS_P2;Temp;Humidity;BMP_temperature;BMP_pressure;BME280_temperature;BME280_humidity;BME280_pressure;Samples;Min_cycle;Max_cycle;Signal;HPM_P1;HPM_P2
2023/05/28 00:01:46;;;;;;;6.57;5.20;;;;;;;15.17;84.60;100392.09;5056447;28;20188;-76
2023/05/28 00:04:12;;;;;;;9.03;5.13;;;;;;;15.16;84.63;100395.59;5073533;28;20661;-75
2023/05/28 00:06:37;;;;;;;6.90;4.97;;;;;;;15.09;84.62;100389.69;5073951;28;20204;-75
2023/05/28 00:09:03;;;;;;;5.10;4.50;;;;;;;15.03;84.77;100389.88;5072732;28;20250;-74
2023/05/28 00:11:28;;;;;;;7.10;5.43;;;;;;;15.01;84.39;100389.88;5067091;28;20632;-75
2023/05/28 00:13:53;;;;;;;6.30;4.33;;;;;;;15.01;84.24;100389.88;5076227;28;21308;-75
2023/05/28 00:16:19;;;;;;;8.93;5.37;;;;;;;15.04;83.31;100384.59;5077728;28;20229;-75
2023/05/28 00:18:45;;;;;;;5.67;5.00;;;;;;;14.97;83.65;100379.59;5068540;28;20315;-75
2023/05/28 00:21:11;;;;;;;7.90;4.27;;;;;;;14.93;84.31;100386.63;5071643;28;20643;-77
2023/05/28 00:23:36;;;;;;;7.50;4.73;;;;;;;14.87;84.13;100382.44;5054679;28;20214;-74
2023/05/28 00:26:01;;;;;;;8.93;5.17;;;;;;;14.85;84.45;100379.00;5074538;28;20212;-74
2023/05/28 00:28:27;;;;;;;5.47;4.40;;;;;;;14.78;84.63;100382.66;5069036;28;20240;-75
2023/05/28 00:30:52;;;;;;;7.80;5.23;;;;;;;14.78;84.85;100367.03;5072457;28;20187;-75
2023/05/28 00:33:18;;;;;;;6.10;4.50;;;;;;;14.75;85.13;100367.97;5073284;28;22584;-75
2023/05/28 00:35:43;;;;;;;7.17;5.30;;;;;;;14.72;86.01;100367.19;5073466;28;22651;-75
2023/05/28 00:38:08;;;;;;;7.63;4.77;;;;;;;14.70;85.03;100376.78;5075711;28;20634;-75
2023/05/28 00:40:33;;;;;;;7.87;5.30;;;;;;;14.65;85.11;100374.28;5072770;28;20199;-75
2023/05/28 00:42:59;;;;;;;7.13;5.00;;;;;;;14.59;84.32;100366.59;5074937;28;20185;-75
2023/05/28 00:45:24;;;;;;;6.37;4.87;;;;;;;14.63;83.97;100368.25;5077030;28;20238;-77
2023/05/28 00:47:50;;;;;;;5.77;4.83;;;;;;;14.58;84.17;100372.69;5053729;28;20218;-77
2023/05/28 00:50:16;;;;;;;7.40;4.67;;;;;;;14.45;84.35;100367.78;5070582;28;20214;-77
2023/05/28 00:52:45;;;;;;;6.50;5.47;;;;;;;14.41;84.54;100371.34;5070146;28;20194;-77
2023/05/28 00:55:15;;;;;;;9.03;5.57;;;;;;;14.35;85.25;100379.31;5071249;28;20212;-76
2023/05/28 00:57:41;;;;;;;6.60;4.80;;;;;;;14.33;84.67;100375.91;5073311;28;20183;-76
2023/05/28 01:00:08;;;;;;;6.93;4.63;;;;;;;14.26;85.04;100382.13;5052132;28;20729;-77
2023/05/28 01:02:33;;;;;;;8.90;5.50;;;;;;;14.22;85.14;100381.34;5052473;28;20297;-74
2023/05/28 01:04:59;;;;;;;6.40;5.20;;;;;;;14.23;85.16;100371.78;5073020;28;20265;-76
2023/05/28 01:07:24;;;;;;;7.23;4.93;;;;;;;14.22;85.25;100377.91;5072830;28;20310;-75
2023/05/28 01:09:50;;;;;;;7.30;5.70;;;;;;;14.17;85.97;100381.44;5071512;28;20283;-74
2023/05/28 01:12:15;;;;;;;6.70;5.53;;;;;;;14.15;85.98;100378.03;5077628;28;20524;-74
2023/05/28 01:14:41;;;;;;;8.77;4.83;;;;;;;14.18;85.98;100374.47;5071090;28;20345;-75
2023/05/28 01:17:07;;;;;;;8.00;4.90;;;;;;;14.12;85.64;100370.28;5071598;28;20184;-77
2023/05/28 01:19:33;;;;;;;7.17;5.13;;;;;;;14.09;86.10;100366.88;5072975;28;20694;-77
2023/05/28 01:22:03;;;;;;;7.63;5.00;;;;;;;14.02;86.01;100368.78;5068681;28;20208;-76
2023/05/28 01:24:32;;;;;;;7.33;5.50;;;;;;;14.05;85.32;100373.03;5071792;28;20184;-77
2023/05/28 01:26:58;;;;;;;7.00;4.83;;;;;;;14.00;85.22;100376.59;5054454;28;20205;-75
2023/05/28 01:29:23;;;;;;;6.57;4.53;;;;;;;13.96;85.11;100374.09;5070951;28;20254;-75
2023/05/28 01:31:48;;;;;;;8.07;4.87;;;;;;;13.93;85.84;100364.63;5052493;28;21139;-75
2023/05/28 01:34:14;;;;;;;5.23;4.13;;;;;;;13.94;86.19;100381.06;5069058;28;20749;-75
2023/05/28 01:36:54;;;;;;;7.30;4.80;;;;;;;13.94;85.98;100366.34;5067058;28;20193;-76
2023/05/28 01:39:22;;;;;;;6.30;4.90;;;;;;;13.96;86.13;100368.91;5071899;28;20212;-74
2023/05/28 01:41:49;;;;;;;5.77;4.37;;;;;;;14.00;85.46;100365.34;5053447;28;20191;-75
2023/05/28 01:44:18;;;;;;;6.97;5.13;;;;;;;13.93;85.87;100363.75;5069494;28;20407;-74
2023/05/28 01:46:45;;;;;;;8.83;5.30;;;;;;;13.92;86.09;100360.31;5074395;28;20378;-78
2023/05/28 01:49:11;;;;;;;7.30;5.10;;;;;;;13.90;86.39;100362.09;5072485;28;20254;-77
2023/05/28 01:51:37;;;;;;;5.10;4.33;;;;;;;13.85;86.61;100367.38;5053194;28;20593;-75
2023/05/28 01:54:02;;;;;;;7.67;5.30;;;;;;;13.83;86.62;100368.31;5054324;28;20192;-75
2023/05/28 01:56:28;;;;;;;6.33;4.80;;;;;;;13.79;86.56;100356.25;5069650;28;20188;-75
2023/05/28 01:58:53;;;;;;;7.73;5.40;;;;;;;13.75;86.65;100359.81;5070745;28;20209;-73
2023/05/28 02:01:29;;;;;;;8.27;4.70;;;;;;;13.76;86.80;100358.91;5069588;28;20183;-75
2023/05/28 02:03:58;;;;;;;6.30;4.63;;;;;;;13.75;86.32;100362.41;5070754;28;20199;-74
2023/05/28 02:06:25;;;;;;;5.97;4.10;;;;;;;13.74;85.80;100358.09;5070207;28;20801;-77
2023/05/28 02:08:52;;;;;;;7.50;4.90;;;;;;;13.72;85.52;100352.94;5054804;28;20239;-74
2023/05/28 02:11:17;;;;;;;6.43;4.87;;;;;;;13.71;85.44;100354.66;5067272;28;20252;-78
2023/05/28 02:13:43;;;;;;;7.00;4.60;;;;;;;13.74;85.11;100358.97;5071022;28;20999;-75
2023/05/28 02:16:10;;;;;;;7.23;4.97;;;;;;;13.68;85.12;100351.28;5073568;28;20721;-77
2023/05/28 02:18:36;;;;;;;5.57;4.57;;;;;;;13.66;85.06;100351.31;5076150;28;20233;-75
2023/05/28 02:21:03;;;;;;;7.40;4.97;;;;;;;13.68;84.97;100344.34;5072482;28;20278;-76
2023/05/28 02:23:28;;;;;;;6.87;4.57;;;;;;;13.60;85.42;100355.78;5074404;28;20186;-76
2023/05/28 02:25:53;;;;;;;8.47;4.27;;;;;;;13.55;85.87;100348.06;5079584;28;20206;-77
2023/05/28 02:28:19;;;;;;;7.03;4.80;;;;;;;13.65;85.32;100357.41;5073611;28;20650;-75
2023/05/28 02:30:44;;;;;;;5.77;4.67;;;;;;;13.60;86.07;100354.03;5072742;28;20739;-73
2023/05/28 02:33:09;;;;;;;4.77;4.17;;;;;;;13.48;86.50;100352.53;5073480;28;20186;-74
2023/05/28 02:35:35;;;;;;;7.07;4.90;;;;;;;13.47;86.89;100350.81;5074522;28;20518;-75
2023/05/28 02:38:01;;;;;;;6.63;4.70;;;;;;;13.44;87.05;100342.22;5079414;28;20189;-76
2023/05/28 02:40:26;;;;;;;7.30;5.00;;;;;;;13.40;86.92;100344.88;5074609;28;20287;-76
2023/05/28 02:42:51;;;;;;;8.60;5.30;;;;;;;13.36;87.28;100345.81;5062211;28;20280;-76
2023/05/28 02:45:17;;;;;;;7.03;4.53;;;;;;;13.33;87.42;100348.47;5060602;28;20211;-75
2023/05/28 02:47:42;;;;;;;7.73;4.90;;;;;;;13.39;87.15;100347.50;5076789;28;20181;-75
2023/05/28 02:50:08;;;;;;;7.33;4.77;;;;;;;13.44;86.96;100357.81;5074688;28;20692;-75
2023/05/28 02:52:33;;;;;;;6.10;4.87;;;;;;;13.42;86.88;100350.06;5056456;28;20474;-76
2023/05/28 02:54:58;;;;;;;10.47;5.23;;;;;;;13.33;87.69;100352.81;5075060;28;20183;-75
2023/05/28 02:57:24;;;;;;;7.83;5.00;;;;;;;13.29;87.93;100348.56;5075639;28;20211;-75
2023/05/28 02:59:49;;;;;;;7.47;4.93;;;;;;;13.31;87.65;100345.03;5075023;28;20208;-77
2023/05/28 03:02:14;;;;;;;6.63;4.80;;;;;;;13.27;87.75;100349.44;5056214;28;20205;-76
2023/05/28 03:04:42;;;;;;;9.00;5.43;;;;;;;13.30;87.74;100360.69;5057648;28;20281;-75
2023/05/28 03:07:08;;;;;;;7.10;4.70;;;;;;;13.22;87.93;100353.03;5072145;28;20243;-75
2023/05/28 03:09:33;;;;;;;6.67;5.10;;;;;;;13.23;88.22;100358.19;5074761;28;20210;-76
2023/05/28 03:11:59;;;;;;;8.40;5.13;;;;;;;13.31;87.97;100358.03;5059276;28;20188;-74
2023/05/28 03:14:24;;;;;;;9.03;4.83;;;;;;;13.18;88.91;100359.16;5077873;28;20239;-75
2023/05/28 03:16:49;;;;;;;8.90;5.13;;;;;;;13.10;89.25;100356.72;5076061;28;20193;-76
2023/05/28 03:19:15;;;;;;;7.67;4.87;;;;;;;13.13;89.09;100361.84;5076565;28;20296;-75
2023/05/28 03:21:40;;;;;;;8.80;5.03;;;;;;;13.06;89.12;100362.84;5076213;28;20621;-76
2023/05/28 03:24:06;;;;;;;6.80;5.13;;;;;;;13.08;89.24;100359.31;5076613;28;20315;-76
2023/05/28 03:26:32;;;;;;;6.87;4.90;;;;;;;13.06;89.42;100363.72;5076115;28;20222;-74
2023/05/28 03:28:57;;;;;;;6.97;4.90;;;;;;;12.99;89.76;100362.09;5061758;28;20229;-77
2023/05/28 03:31:27;;;;;;;7.40;5.40;;;;;;;13.00;90.03;100356.00;5059447;28;20213;-75
2023/05/28 03:33:52;;;;;;;7.00;4.87;;;;;;;12.97;90.23;100358.66;5074384;28;20181;-75
2023/05/28 03:36:18;;;;;;;6.07;5.47;;;;;;;12.98;90.42;100359.53;5079093;28;20185;-75
2023/05/28 03:38:43;;;;;;;7.33;4.93;;;;;;;12.99;90.45;100364.69;5076676;28;20205;-75
2023/05/28 03:41:09;;;;;;;10.07;6.07;;;;;;;12.96;90.60;100364.72;5073980;28;20221;-75
2023/05/28 03:43:34;;;;;;;7.27;5.03;;;;;;;12.95;90.94;100365.63;5061947;28;20241;-74
2023/05/28 03:45:59;;;;;;;6.40;4.93;;;;;;;12.95;91.09;100368.22;5074952;28;20205;-76
2023/05/28 03:48:25;;;;;;;6.83;5.20;;;;;;;12.95;91.47;100365.63;5076748;28;20189;-76
2023/05/28 03:50:50;;;;;;;6.27;4.90;;;;;;;12.96;91.02;100360.41;5070502;28;20271;-77
2023/05/28 03:53:16;;;;;;;6.77;4.97;;;;;;;12.95;90.90;100361.28;5074042;28;20193;-75
2023/05/28 03:55:41;;;;;;;7.53;5.60;;;;;;;12.98;90.90;100356.94;5076645;28;20190;-75
2023/05/28 03:58:07;;;;;;;6.57;5.10;;;;;;;13.01;90.71;100365.53;5058688;28;20190;-76
2023/05/28 04:00:32;;;;;;;8.10;5.63;;;;;;;13.01;90.82;100365.53;5062516;28;20212;-75
2023/05/28 04:02:58;;;;;;;6.73;4.33;;;;;;;13.02;90.78;100362.03;5080440;28;20186;-76
2023/05/28 04:05:24;;;;;;;6.73;4.73;;;;;;;13.09;90.60;100370.56;5068310;28;20204;-76
2023/05/28 04:07:49;;;;;;;6.37;4.80;;;;;;;13.14;90.53;100370.50;5060124;28;20190;-76
2023/05/28 04:10:15;;;;;;;5.50;4.80;;;;;;;13.17;89.98;100378.22;5069892;28;20209;-75
2023/05/28 04:12:40;;;;;;;5.57;4.00;;;;;;;13.20;89.64;100371.22;5070116;28;20177;-75
2023/05/28 04:15:07;;;;;;;6.53;4.40;;;;;;;13.24;89.34;100372.91;5071469;28;20668;-75
2023/05/28 04:17:32;;;;;;;5.23;4.53;;;;;;;13.33;88.99;100378.78;5069196;28;20196;-75
2023/05/28 04:19:58;;;;;;;6.57;4.57;;;;;;;13.35;89.16;100377.03;5067914;28;20766;-76
2023/05/28 04:22:23;;;;;;;5.60;4.20;;;;;;;13.47;88.43;100376.81;5056362;28;20211;-75
2023/05/28 04:24:51;;;;;;;5.73;4.53;;;;;;;13.65;88.06;100374.75;5067365;28;20490;-77
2023/05/28 04:27:17;;;;;;;6.97;4.57;;;;;;;13.89;87.12;100386.38;5073490;28;20188;-76
2023/05/28 04:29:43;;;;;;;6.87;4.73;;;;;;;14.11;85.61;100380.72;5071509;28;20211;-75
2023/05/28 04:32:09;;;;;;;7.33;5.30;;;;;;;14.18;85.32;100384.88;5057880;28;20265;-75
2023/05/28 04:34:34;;;;;;;5.33;4.60;;;;;;;14.37;84.98;100382.72;5052722;28;20287;-76
2023/05/28 04:36:59;;;;;;;6.67;4.90;;;;;;;14.57;84.29;100381.41;5057253;28;20181;-75
2023/05/28 04:39:26;;;;;;;6.80;4.93;;;;;;;14.76;83.23;100387.03;5073796;28;20303;-75
2023/05/28 04:41:53;;;;;;;4.93;4.37;;;;;;;14.95;83.07;100384.84;5075751;28;20695;-76
2023/05/28 04:44:19;;;;;;;7.10;4.60;;;;;;;15.01;82.02;100389.03;5072787;28;20378;-75
2023/05/28 04:46:45;;;;;;;6.10;4.80;;;;;;;15.02;82.36;100389.00;5071337;28;20215;-75
2023/05/28 04:49:12;;;;;;;6.83;5.23;;;;;;;15.11;82.76;100390.50;5071011;28;20914;-75
2023/05/28 04:51:38;;;;;;;7.80;5.10;;;;;;;15.21;82.15;100393.72;5069242;28;20200;-75
2023/05/28 04:54:03;;;;;;;7.00;4.33;;;;;;;15.32;81.76;100390.84;5069831;28;20466;-75
2023/05/28 04:56:29;;;;;;;5.63;4.30;;;;;;;15.39;81.86;100395.84;5050795;28;20186;-76
2023/05/28 04:58:55;;;;;;;7.17;4.77;;;;;;;15.52;81.74;100393.75;5070768;28;21410;-76
2023/05/28 05:01:22;;;;;;;5.87;4.47;;;;;;;15.69;80.99;100388.06;5073282;28;20573;-75
2023/05/28 05:03:47;;;;;;;6.10;4.30;;;;;;;15.86;80.85;100386.75;5068857;28;20196;-75
2023/05/28 05:06:13;;;;;;;7.47;4.80;;;;;;;15.95;80.18;100389.09;5070591;28;20594;-75
2023/05/28 05:08:38;;;;;;;5.73;4.60;;;;;;;16.21;79.52;100392.66;5054102;28;20507;-76
2023/05/28 05:11:05;;;;;;;5.97;4.90;;;;;;;16.46;78.78;100387.53;5069341;28;21082;-75
2023/05/28 05:13:30;;;;;;;7.20;4.57;;;;;;;16.68;77.78;100386.84;5080732;28;20177;-76
2023/05/28 05:15:56;;;;;;;6.10;4.47;;;;;;;17.00;77.34;100394.53;5096148;28;20179;-77
2023/05/28 05:18:22;;;;;;;6.17;4.07;;;;;;;17.35;76.21;100385.44;5079166;28;20197;-77
2023/05/28 05:20:47;;;;;;;4.80;4.30;;;;;;;17.73;74.88;100389.34;5081250;28;20249;-76
2023/05/28 05:23:12;;;;;;;6.17;4.57;;;;;;;17.86;73.93;100390.59;5073474;28;20186;-78
2023/05/28 05:25:38;;;;;;;5.67;4.30;;;;;;;17.86;73.40;100384.50;5071582;28;20618;-76
2023/05/28 05:28:03;;;;;;;8.73;4.77;;;;;;;17.68;73.36;100393.00;5073413;28;20571;-76
2023/05/28 05:30:28;;;;;;;6.80;4.87;;;;;;;18.04;72.52;100383.00;5068830;28;20941;-75
2023/05/28 05:32:54;;;;;;;5.87;4.57;;;;;;;18.35;71.85;100392.28;5071614;28;20185;-75
2023/05/28 05:35:19;;;;;;;7.00;4.37;;;;;;;18.21;72.45;100387.56;5067203;28;20225;-76
2023/05/28 05:37:45;;;;;;;6.37;4.00;;;;;;;18.08;73.02;100393.28;5069346;28;20816;-74
2023/05/28 05:40:11;;;;;;;7.43;4.43;;;;;;;18.08;73.30;100390.66;5066357;28;21067;-76
2023/05/28 05:42:36;;;;;;;6.17;4.90;;;;;;;18.11;72.83;100387.94;5051380;28;20267;-75
2023/05/28 05:45:02;;;;;;;7.40;4.27;;;;;;;18.42;72.57;100397.22;5053365;28;20188;-75
2023/05/28 05:47:27;;;;;;;6.87;4.53;;;;;;;18.74;72.04;100402.03;5068021;28;20269;-76
2023/05/28 05:49:52;;;;;;;5.63;3.87;;;;;;;19.19;70.54;100398.44;5069570;28;20200;-76
2023/05/28 05:52:17;;;;;;;6.57;4.57;;;;;;;19.16;70.11;100397.72;5052189;28;20217;-75
2023/05/28 05:54:43;;;;;;;5.43;3.97;;;;;;;19.61;70.04;100401.84;5077773;28;20695;-76
2023/05/28 05:57:09;;;;;;;5.83;4.00;;;;;;;19.97;69.12;100395.03;5071184;28;20209;-76
2023/05/28 05:59:34;;;;;;;5.93;4.70;;;;;;;19.76;69.04;100389.78;5052571;28;20217;-77
2023/05/28 06:02:00;;;;;;;8.37;4.37;;;;;;;19.88;68.49;100395.47;5067986;28;20211;-77
2023/05/28 06:04:31;;;;;;;7.57;4.50;;;;;;;20.06;68.08;100391.13;5068842;28;20716;-77
2023/05/28 06:06:57;;;;;;;7.57;4.57;;;;;;;20.10;67.19;100403.19;5054266;28;20217;-76
2023/05/28 06:09:23;;;;;;;7.40;4.63;;;;;;;19.77;67.44;100401.16;5069391;28;20221;-77
2023/05/28 06:11:48;;;;;;;6.50;4.70;;;;;;;19.58;68.65;100394.13;5070131;28;20185;-77
2023/05/28 06:14:14;;;;;;;7.17;4.73;;;;;;;19.46;68.72;100392.88;5070701;28;20208;-77
2023/05/28 06:16:39;;;;;;;5.33;4.27;;;;;;;19.82;67.91;100390.44;5071980;28;20208;-77
2023/05/28 06:19:04;;;;;;;6.07;4.60;;;;;;;19.79;67.01;100397.53;5073488;28;20610;-76
2023/05/28 06:21:30;;;;;;;6.40;4.50;;;;;;;19.88;67.69;100391.03;5070538;28;20283;-77
2023/05/28 06:23:55;;;;;;;5.47;4.50;;;;;;;19.36;68.08;100391.59;5065166;28;20216;-74
2023/05/28 06:26:22;;;;;;;6.50;4.50;;;;;;;19.26;68.57;100393.75;5069747;28;20193;-78
2023/05/28 06:28:47;;;;;;;5.50;4.63;;;;;;;19.34;68.93;100390.81;5057070;28;20241;-78
2023/05/28 06:31:12;;;;;;;7.27;4.80;;;;;;;19.45;68.32;100390.34;5062944;28;20681;-78
2023/05/28 06:33:38;;;;;;;7.67;4.60;;;;;;;19.45;68.58;100392.97;5077323;28;20181;-77
2023/05/28 06:36:03;;;;;;;6.37;4.40;;;;;;;19.24;67.93;100403.47;5072471;28;20182;-78
2023/05/28 06:38:28;;;;;;;6.97;4.80;;;;;;;19.45;68.76;100391.16;5071868;28;20185;-76
2023/05/28 06:40:54;;;;;;;4.33;3.93;;;;;;;19.85;67.99;100395.56;5070008;28;20196;-76
2023/05/28 06:43:20;;;;;;;6.70;4.27;;;;;;;19.79;66.74;100396.69;5072670;28;20189;-76
2023/05/28 06:45:45;;;;;;;7.67;4.77;;;;;;;20.12;66.49;100396.06;5054498;28;20238;-76
2023/05/28 06:48:10;;;;;;;6.90;4.43;;;;;;;20.14;66.70;100406.50;5075532;28;20188;-78
2023/05/28 06:50:36;;;;;;;5.73;4.10;;;;;;;20.25;65.92;100398.97;5071141;28;20537;-77
2023/05/28 06:53:01;;;;;;;7.10;5.10;;;;;;;19.97;65.73;100407.28;5072723;28;20269;-75
2023/05/28 06:55:27;;;;;;;8.57;4.57;;;;;;;19.99;66.42;100406.31;5068327;28;20189;-76
2023/05/28 06:57:52;;;;;;;7.50;5.00;;;;;;;20.36;66.14;100399.28;5067949;28;20265;-77
2023/05/28 07:00:17;;;;;;;6.50;4.13;;;;;;;20.41;66.53;100392.03;5054871;28;20205;-76
2023/05/28 07:02:45;;;;;;;7.23;4.20;;;;;;;20.56;65.89;100397.47;5068394;28;20193;-76
2023/05/28 07:05:12;;;;;;;6.80;4.50;;;;;;;20.17;66.58;100406.38;5073300;28;20201;-78
2023/05/28 07:07:38;;;;;;;5.27;4.27;;;;;;;20.16;66.47;100405.50;5073647;28;20185;-78
2023/05/28 07:10:03;;;;;;;7.07;4.60;;;;;;;20.52;66.70;100401.19;5070603;28;20263;-77
2023/05/28 07:12:30;;;;;;;7.67;4.33;;;;;;;20.34;66.55;100408.19;5081527;28;20185;-78
2023/05/28 07:14:55;;;;;;;7.40;4.20;;;;;;;20.58;66.32;100400.88;5072634;28;20224;-78
2023/05/28 07:17:21;;;;;;;5.53;4.47;;;;;;;20.30;66.69;100401.38;5072422;28;20277;-76
2023/05/28 07:19:47;;;;;;;7.60;4.70;;;;;;;20.38;66.36;100402.69;5074216;28;20269;-76
2023/05/28 07:22:12;;;;;;;7.80;4.77;;;;;;;20.54;66.49;100404.59;5074307;28;20192;-77
2023/05/28 07:24:37;;;;;;;6.47;4.13;;;;;;;20.53;67.16;100411.63;5074646;28;20185;-77
2023/05/28 07:27:03;;;;;;;6.50;4.63;;;;;;;20.66;66.42;100416.28;5076762;28;20209;-75
2023/05/28 07:29:28;;;;;;;6.40;4.60;;;;;;;20.58;66.90;100415.78;5072799;28;20219;-75
2023/05/28 07:31:53;;;;;;;5.40;4.43;;;;;;;;;;5070245;28;20189;-78
2023/05/28 07:34:19;;;;;;;5.90;4.70;;;;;;;21.02;66.17;100421.53;5074911;28;20251;-75
2023/05/28 07:36:44;;;;;;;5.53;4.33;;;;;;;21.27;64.98;100409.72;5075031;28;20680;-77
2023/05/28 07:39:13;;;;;;;6.07;4.70;;;;;;;21.43;65.43;100412.44;5060609;28;20316;-78
2023/05/28 07:41:38;;;;;;;6.43;4.73;;;;;;;21.12;65.89;100415.78;5072230;28;20573;-76
2023/05/28 07:44:03;;;;;;;9.13;5.20;;;;;;;20.91;65.79;100412.47;5073097;28;20182;-76
2023/05/28 07:46:29;;;;;;;7.10;4.67;;;;;;;20.76;66.05;100411.47;5056397;28;20210;-76
2023/05/28 07:48:54;;;;;;;5.47;4.57;;;;;;;20.74;66.11;100415.91;5070863;28;20277;-76
2023/05/28 07:51:20;;;;;;;7.13;4.97;;;;;;;20.52;67.02;100409.06;5071846;28;20228;-76
2023/05/28 07:53:46;;;;;;;6.23;4.43;;;;;;;20.66;67.22;100409.25;5074016;28;20276;-77
2023/05/28 07:56:11;;;;;;;6.83;4.60;;;;;;;20.91;67.02;100409.84;5075899;28;20713;-76
2023/05/28 07:58:36;;;;;;;6.23;4.37;;;;;;;21.00;66.74;100415.47;5055526;28;20220;-77
2023/05/28 08:01:08;;;;;;;6.90;4.80;;;;;;;21.05;66.05;100403.88;5073912;28;20201;-76
2023/05/28 08:03:33;;;;;;;8.97;5.40;;;;;;;21.13;66.04;100402.56;5067319;28;20185;-76
2023/05/28 08:05:59;;;;;;;5.23;4.20;;;;;;;21.08;66.05;100420.34;5076285;28;20210;-79
2023/05/28 08:08:24;;;;;;;9.00;4.90;;;;;;;21.15;66.00;100411.22;5052741;28;20186;-76
2023/05/28 08:10:50;;;;;;;7.83;5.07;;;;;;;21.09;66.01;100408.06;5070554;28;20186;-77
2023/05/28 08:13:16;;;;;;;6.40;4.10;;;;;;;21.20;65.86;100421.53;5072057;28;20189;-76
2023/05/28 08:15:41;;;;;;;9.23;4.67;;;;;;;21.24;66.24;100411.69;5079636;28;20220;-76
2023/05/28 08:18:06;;;;;;;5.83;4.93;;;;;;;21.14;66.49;100409.53;5072463;28;20181;-75
2023/05/28 08:20:31;;;;;;;7.47;5.03;;;;;;;20.91;65.73;100404.56;5052939;28;20569;-78
2023/05/28 08:22:57;;;;;;;6.50;4.90;;;;;;;20.91;67.25;100400.19;5074742;28;20185;-76
2023/05/28 08:25:22;;;;;;;5.77;4.73;;;;;;;21.16;66.27;100404.19;5056379;28;20218;-76
2023/05/28 08:27:48;;;;;;;8.27;4.80;;;;;;;21.01;66.10;100404.03;5071713;28;20284;-77
2023/05/28 08:30:13;;;;;;;7.63;4.63;;;;;;;20.78;66.42;100393.84;5053783;28;20205;-75
2023/05/28 08:32:38;;;;;;;8.27;4.60;;;;;;;20.93;66.69;100389.56;5052316;28;20193;-77
2023/05/28 08:35:04;;;;;;;7.17;4.60;;;;;;;20.91;66.31;100384.41;5068859;28;20213;-76
2023/05/28 08:37:29;;;;;;;6.57;4.70;;;;;;;21.01;65.93;100384.78;5055151;28;20695;-76
2023/05/28 08:39:55;;;;;;;7.13;4.37;;;;;;;21.08;66.65;100386.16;5068279;28;20224;-76
2023/05/28 08:42:20;;;;;;;5.90;4.63;;;;;;;21.05;66.36;100383.66;5071210;28;20189;-76
2023/05/28 08:44:46;;;;;;;5.57;4.50;;;;;;;21.07;66.79;100378.34;5069033;28;20193;-77
2023/05/28 08:47:12;;;;;;;5.77;4.17;;;;;;;21.19;67.22;100380.34;5070792;28;20259;-79
2023/05/28 08:49:41;;;;;;;8.73;5.20;;;;;;;21.11;66.79;100377.25;5053238;28;20229;-76
2023/05/28 08:52:10;;;;;;;7.17;4.77;;;;;;;20.91;66.88;100378.25;5070849;28;20197;-77
2023/05/28 08:54:37;;;;;;;6.60;4.77;;;;;;;20.84;67.08;100367.22;5069840;28;20200;-77
2023/05/28 08:57:03;;;;;;;6.37;4.87;;;;;;;20.84;67.18;100362.81;5067972;28;20272;-77
2023/05/28 08:59:29;;;;;;;6.93;4.50;;;;;;;20.89;67.06;100369.59;5069073;28;20756;-76
2023/05/28 09:01:55;;;;;;;6.80;4.77;;;;;;;20.82;66.31;100369.06;5050103;28;20218;-76
2023/05/28 09:04:21;;;;;;;4.70;4.20;;;;;;;20.86;67.07;100362.72;5066409;28;20212;-75
2023/05/28 09:06:48;;;;;;;6.97;4.97;;;;;;;20.90;67.70;100366.91;5070716;28;20627;-77
2023/05/28 09:09:13;;;;;;;6.57;5.07;;;;;;;20.98;66.20;100363.88;5073108;28;20248;-77
2023/05/28 09:11:39;;;;;;;6.83;4.40;;;;;;;20.99;65.97;100363.78;5073060;28;20308;-76
2023/05/28 09:14:12;;;;;;;9.20;5.17;;;;;;;20.98;65.43;100356.00;5069298;28;20636;-77
2023/05/28 09:16:42;;;;;;;5.33;4.80;;;;;;;20.98;65.95;100363.88;5071364;28;22270;-76
2023/05/28 09:19:08;;;;;;;6.03;3.90;;;;;;;21.07;66.36;100354.66;5067660;28;20700;-76
2023/05/28 09:21:34;;;;;;;9.10;5.00;;;;;;;21.15;66.57;100350.72;5071443;28;20192;-75
2023/05/28 09:24:00;;;;;;;9.13;4.83;;;;;;;21.09;65.55;100347.56;5071972;28;20196;-76
2023/05/28 09:26:32;;;;;;;8.73;4.87;;;;;;;21.07;66.22;100344.16;5069124;28;20253;-77
2023/05/28 09:28:58;;;;;;;8.60;4.77;;;;;;;21.23;66.19;100349.44;5067479;28;20206;-76
2023/05/28 09:31:33;;;;;;;6.30;4.30;;;;;;;21.28;65.58;100353.53;5066608;28;20700;-76
2023/05/28 09:34:03;;;;;;;6.03;4.63;;;;;;;21.37;65.46;100352.19;5052000;28;21101;-76
2023/05/28 09:36:30;;;;;;;8.50;4.87;;;;;;;21.36;66.22;100344.38;5070044;28;20236;-76
2023/05/28 09:38:55;;;;;;;5.73;4.43;;;;;;;21.35;64.99;100345.31;5055566;28;20319;-75
2023/05/28 09:41:23;;;;;;;6.90;4.60;;;;;;;21.40;64.92;100344.13;5055137;28;20181;-76
2023/05/28 09:43:59;;;;;;;5.93;4.57;;;;;;;21.39;65.21;100339.81;5068403;28;20193;-77
2023/05/28 09:46:35;;;;;;;7.20;5.00;;;;;;;21.47;66.68;100336.75;5072489;28;20232;-76
2023/05/28 09:49:01;;;;;;;6.27;4.87;;;;;;;21.50;65.90;100333.09;5072442;28;20767;-76
2023/05/28 09:51:29;;;;;;;8.37;5.00;;;;;;;21.47;65.20;100344.66;5055933;28;20861;-76
2023/05/28 09:54:00;;;;;;;8.50;4.33;;;;;;;21.39;65.63;100329.28;5067932;28;20190;-77
2023/05/28 09:56:33;;;;;;;7.23;5.03;;;;;;;21.45;65.07;100326.31;5069022;28;20186;-77
2023/05/28 09:59:00;;;;;;;5.77;4.30;;;;;;;21.51;65.44;100329.53;5051617;28;20254;-77
2023/05/28 10:01:31;;;;;;;9.33;4.80;;;;;;;21.61;64.82;100334.25;5070074;28;20189;-78
2023/05/28 10:04:04;;;;;;;7.23;4.73;;;;;;;21.61;65.47;100341.31;5070429;28;20552;-77
2023/05/28 10:06:30;;;;;;;6.70;4.00;;;;;;;21.75;65.20;100328.25;5071481;28;20288;-76
2023/05/28 10:08:59;;;;;;;6.83;4.40;;;;;;;21.81;64.92;100316.50;5072809;28;20224;-76
2023/05/28 10:11:31;;;;;;;7.53;4.63;;;;;;;21.89;64.97;100324.00;5068466;28;20695;-77
2023/05/28 10:13:56;;;;;;;9.13;5.30;;;;;;;21.86;63.95;100324.16;5071404;28;20194;-77
2023/05/28 10:16:22;;;;;;;7.20;4.63;;;;;;;21.93;64.00;100329.00;5055568;28;20235;-77
2023/05/28 10:18:48;;;;;;;8.23;4.37;;;;;;;22.08;63.20;100314.09;5072226;28;20254;-77
2023/05/28 10:21:14;;;;;;;9.93;4.80;;;;;;;22.20;63.81;100317.81;5071167;28;20196;-77
2023/05/28 10:23:42;;;;;;;7.43;4.70;;;;;;;22.33;63.32;100311.84;5068673;28;20188;-77
2023/05/28 10:26:08;;;;;;;8.37;4.87;;;;;;;22.49;63.49;100310.03;5074481;28;20255;-77
2023/05/28 10:28:33;;;;;;;6.43;4.60;;;;;;;22.53;63.46;100314.19;5068699;28;20203;-78
2023/05/28 10:31:10;;;;;;;7.70;4.70;;;;;;;22.55;62.80;100303.53;5066952;28;20185;-77
2023/05/28 10:33:41;;;;;;;8.27;4.30;;;;;;;22.64;62.04;100313.56;5072208;28;20649;-77
2023/05/28 10:36:12;;;;;;;7.30;4.30;;;;;;;22.64;61.82;100310.06;5052864;28;20181;-78
2023/05/28 10:39:05;;;;;;;8.93;5.10;;;;;;;22.63;61.98;100314.50;5070675;28;20221;-77
2023/05/28 10:41:33;;;;;;;6.90;4.50;;;;;;;22.81;62.84;100298.53;5075350;28;20204;-76
2023/05/28 10:44:06;;;;;;;9.03;4.53;;;;;;;22.83;62.57;100309.84;5075267;28;20201;-77
2023/05/28 10:46:36;;;;;;;6.53;4.23;;;;;;;22.87;61.66;100307.84;5072780;28;20212;-76
2023/05/28 10:49:30;;;;;;;8.40;5.10;;;;;;;22.89;61.16;100314.72;5072715;28;20710;-76
2023/05/28 10:52:00;;;;;;;8.63;4.37;;;;;;;22.87;61.44;100305.22;5069479;28;20873;-77
2023/05/28 10:54:29;;;;;;;11.43;4.93;;;;;;;22.89;62.34;100313.91;5077350;28;20185;-78
2023/05/28 10:57:20;;;;;;;8.90;4.87;;;;;;;22.89;61.49;100306.81;5075803;28;20178;-77
2023/05/28 10:59:49;;;;;;;11.07;4.70;;;;;;;22.89;61.48;100298.06;5072931;28;20229;-77
2023/05/28 11:02:28;;;;;;;6.87;4.57;;;;;;;22.83;61.14;100297.47;5071952;28;20190;-77
2023/05/28 11:05:02;;;;;;;6.77;4.40;;;;;;;22.90;62.03;100297.13;5074930;28;20186;-77
2023/05/28 11:07:32;;;;;;;7.93;4.57;;;;;;;22.99;62.60;100291.28;5057617;28;20296;-76
2023/05/28 11:09:59;;;;;;;6.13;4.60;;;;;;;23.10;62.44;100280.06;5072563;28;20653;-77
2023/05/28 11:12:31;;;;;;;8.53;4.37;;;;;;;23.12;62.24;100273.75;5077161;28;20201;-76
2023/05/28 11:14:57;;;;;;;6.77;4.40;;;;;;;23.16;62.08;100284.13;5071484;28;20681;-77
2023/05/28 11:17:22;;;;;;;7.57;4.97;;;;;;;23.16;61.08;100278.84;5073885;28;20185;-76
2023/05/28 11:19:50;;;;;;;10.03;5.27;;;;;;;23.14;62.16;100286.84;5076984;28;20217;-76
2023/05/28 11:22:17;;;;;;;6.33;4.67;;;;;;;23.14;61.69;100290.34;5070541;28;20651;-77
2023/05/28 11:25:04;;;;;;;7.90;5.10;;;;;;;23.17;62.03;100270.81;5074322;28;20856;-77